createdAt,value
2022-12-05T00:01:23.026Z,98448.69
2022-12-05T00:03:49.142Z,98451.19
2022-12-05T00:06:15.272Z,98449.19
2022-12-05T00:08:41.372Z,98461.72
2022-12-05T00:11:07.454Z,98447.25
2022-12-05T00:13:33.554Z,98446.06
2022-12-05T00:15:59.653Z,98441.38
2022-12-05T00:18:25.748Z,98439.91
2022-12-05T00:20:51.851Z,98453.06
2022-12-05T00:23:17.968Z,98449.28
2022-12-05T00:25:44.062Z,98448.06
2022-12-05T00:28:10.144Z,98448.91
2022-12-05T00:30:36.245Z,98454.09
2022-12-05T00:33:02.339Z,98456.63
2022-12-05T00:35:28.426Z,98452.53
2022-12-05T00:37:54.586Z,98460.16
2022-12-05T00:40:20.697Z,98452.25
2022-12-05T00:42:52.002Z,98455.28
2022-12-05T00:45:18.484Z,98446.72
2022-12-05T00:47:44.590Z,98458.28
2022-12-05T00:50:10.686Z,98452.44
2022-12-05T00:52:36.802Z,98447.53
2022-12-05T00:55:02.901Z,98449.00
2022-12-05T00:57:28.991Z,98441.19
2022-12-05T00:59:55.426Z,98449.31
2022-12-05T01:02:21.692Z,98442.25
2022-12-05T01:04:47.780Z,98442.94
2022-12-05T01:07:13.881Z,98432.13
2022-12-05T01:09:39.979Z,98433.88
2022-12-05T01:12:06.062Z,98437.03
2022-12-05T01:14:32.188Z,98434.41
2022-12-05T01:16:58.303Z,98440.47
2022-12-05T01:19:24.506Z,98437.03
2022-12-05T01:21:50.622Z,98440.34
2022-12-05T01:24:16.723Z,98442.03
2022-12-05T01:26:42.826Z,98441.72
2022-12-05T01:29:09.027Z,98438.69
2022-12-05T01:31:35.217Z,98440.78
2022-12-05T01:34:01.343Z,98447.84
2022-12-05T01:36:27.448Z,98443.88
2022-12-05T01:38:53.540Z,98444.53
2022-12-05T01:41:19.631Z,98454.97
2022-12-05T01:43:46.032Z,98449.75
2022-12-05T01:46:12.177Z,98448.78
2022-12-05T01:48:38.288Z,98443.97
2022-12-05T01:51:04.400Z,98449.94
2022-12-05T01:53:30.497Z,98445.97
2022-12-05T01:55:56.585Z,98450.34
2022-12-05T01:58:22.691Z,98451.19
2022-12-05T02:00:48.846Z,98455.34
2022-12-05T02:03:14.993Z,98448.88
2022-12-05T02:05:41.108Z,98456.59
2022-12-05T02:08:07.257Z,98459.09
2022-12-05T02:10:33.338Z,98462.03
2022-12-05T02:12:59.464Z,98459.94
2022-12-05T02:15:25.565Z,98454.53
2022-12-05T02:17:51.667Z,98462.22
2022-12-05T02:20:17.791Z,98464.13
2022-12-05T02:22:43.898Z,98473.38
2022-12-05T02:25:09.995Z,98464.13
2022-12-05T02:27:36.099Z,98461.19
2022-12-05T02:30:02.200Z,98466.31
2022-12-05T02:32:28.299Z,98458.69
2022-12-05T02:34:54.889Z,98465.78
2022-12-05T02:37:20.982Z,98462.22
2022-12-05T02:39:47.091Z,98465.25
2022-12-05T02:42:13.239Z,98462.22
2022-12-05T02:44:39.343Z,98468.19
2022-12-05T02:47:05.431Z,98459.50
2022-12-05T02:49:31.547Z,98456.81
2022-12-05T02:51:57.641Z,98461.72
2022-12-05T02:54:23.740Z,98464.22
2022-12-05T02:56:49.863Z,98466.09
2022-12-05T02:59:21.465Z,98455.78
2022-12-05T03:01:49.433Z,98460.88
2022-12-05T03:04:15.622Z,98468.59
2022-12-05T03:06:41.752Z,98468.09
2022-12-05T03:09:07.849Z,98471.81
2022-12-05T03:11:33.954Z,98474.75
2022-12-05T03:14:00.044Z,98473.19
2022-12-05T03:16:26.195Z,98473.91
2022-12-05T03:18:52.356Z,98479.13
2022-12-05T03:21:18.477Z,98474.03
2022-12-05T03:23:44.568Z,98467.34
2022-12-05T03:26:10.697Z,98462.97
2022-12-05T03:28:36.782Z,98467.13
2022-12-05T03:31:02.921Z,98468.00
2022-12-05T03:33:29.063Z,98456.41
2022-12-05T03:35:55.154Z,98465.03
2022-12-05T03:38:21.252Z,98463.09
2022-12-05T03:40:47.374Z,98458.09
2022-12-05T03:43:13.463Z,98465.78
2022-12-05T03:45:39.592Z,98457.13
2022-12-05T03:48:05.743Z,98462.03
2022-12-05T03:50:31.828Z,98463.78
2022-12-05T03:53:19.234Z,98473.91
2022-12-05T03:55:44.048Z,98472.34
2022-12-05T03:58:10.168Z,98472.25
2022-12-05T04:00:36.273Z,98472.34
2022-12-05T04:03:02.455Z,98475.66
2022-12-05T04:05:28.618Z,98478.91
2022-12-05T04:07:54.750Z,98476.72
2022-12-05T04:10:20.913Z,98479.34
2022-12-05T04:12:47.008Z,98482.78
2022-12-05T04:15:13.124Z,98484.44
2022-12-05T04:17:39.220Z,98481.44
2022-12-05T04:20:05.316Z,98480.91
2022-12-05T04:22:31.407Z,98484.34
2022-12-05T04:24:57.514Z,98478.41
2022-12-05T04:27:23.608Z,98490.50
2022-12-05T04:29:49.712Z,98478.09
2022-12-05T04:32:15.831Z,98485.91
2022-12-05T04:34:41.932Z,98485.81
2022-12-05T04:37:08.024Z,98486.41
2022-12-05T04:39:34.639Z,98483.81
2022-12-05T04:42:00.747Z,98487.47
2022-12-05T04:44:26.841Z,98493.50
2022-12-05T04:46:52.973Z,98493.72
2022-12-05T04:49:19.137Z,98488.28
2022-12-05T04:51:45.245Z,98489.84
2022-12-05T04:54:11.360Z,98486.19
2022-12-05T04:56:37.478Z,98483.81
2022-12-05T04:59:03.560Z,98486.19
2022-12-05T05:01:29.748Z,98480.56
2022-12-05T05:03:55.908Z,98477.13
2022-12-05T05:06:22.008Z,98477.66
2022-12-05T05:08:48.140Z,98478.25
2022-12-05T05:11:14.244Z,98473.47
2022-12-05T05:13:40.349Z,98475.03
2022-12-05T05:16:06.501Z,98482.84
2022-12-05T05:18:32.659Z,98476.19
2022-12-05T05:20:58.753Z,98487.25
2022-12-05T05:23:24.875Z,98489.75
2022-12-05T05:25:50.964Z,98489.34
2022-12-05T05:28:17.051Z,98496.09
2022-12-05T05:30:43.162Z,98497.06
2022-12-05T05:33:09.284Z,98494.03
2022-12-05T05:35:35.375Z,98506.22
2022-12-05T05:38:01.474Z,98502.13
2022-12-05T05:40:27.562Z,98501.97
2022-12-05T05:42:53.648Z,98497.88
2022-12-05T05:45:20.042Z,98504.97
2022-12-05T05:47:46.140Z,98514.13
2022-12-05T05:50:16.299Z,98506.22
2022-12-05T05:52:46.252Z,98514.78
2022-12-05T05:55:12.353Z,98513.00
2022-12-05T05:57:38.442Z,98510.50
2022-12-05T06:00:04.583Z,98512.25
2022-12-05T06:02:30.725Z,98514.13
2022-12-05T06:04:56.876Z,98517.69
2022-12-05T06:07:22.988Z,98518.59
2022-12-05T06:09:49.066Z,98513.91
2022-12-05T06:12:15.172Z,98508.47
2022-12-05T06:14:41.299Z,98515.06
2022-12-05T06:17:07.378Z,98515.78
2022-12-05T06:19:33.468Z,98522.47
2022-12-05T06:21:59.575Z,98518.28
2022-12-05T06:24:25.664Z,98526.34
2022-12-05T06:26:51.754Z,98529.59
2022-12-05T06:29:20.589Z,98534.75
2022-12-05T06:31:50.197Z,98523.66
2022-12-05T06:34:16.376Z,98528.06
2022-12-05T06:36:42.475Z,98529.09
2022-12-05T06:39:08.564Z,98533.47
2022-12-05T06:41:34.659Z,98530.03
2022-12-05T06:44:02.453Z,98536.78
2022-12-05T06:46:29.005Z,98542.31
2022-12-05T06:48:55.152Z,98539.28
2022-12-05T06:51:21.262Z,98538.53
2022-12-05T06:53:47.344Z,98539.66
2022-12-05T06:56:13.442Z,98546.22
2022-12-05T06:58:39.553Z,98543.09
2022-12-05T07:01:05.699Z,98552.75
2022-12-05T07:03:31.836Z,98546.56
2022-12-05T07:05:57.966Z,98553.59
2022-12-05T07:08:24.084Z,98554.56
2022-12-05T07:10:50.175Z,98555.81
2022-12-05T07:13:16.292Z,98556.41
2022-12-05T07:15:42.388Z,98559.38
2022-12-05T07:18:08.482Z,98558.75
2022-12-05T07:20:56.096Z,98558.50
2022-12-05T07:23:20.649Z,98555.50
2022-12-05T07:25:46.774Z,98562.34
2022-12-05T07:28:12.863Z,98560.84
2022-12-05T07:30:38.947Z,98564.47
2022-12-05T07:33:05.060Z,98578.44
2022-12-05T07:35:31.154Z,98565.31
2022-12-05T07:37:57.288Z,98571.13
2022-12-05T07:40:23.395Z,98569.59
2022-12-05T07:42:49.492Z,98568.03
2022-12-05T07:45:15.571Z,98570.06
2022-12-05T07:47:41.724Z,98578.00
2022-12-05T07:50:07.830Z,98570.94
2022-12-05T07:52:33.923Z,98576.31
2022-12-05T07:55:00.090Z,98576.97
2022-12-05T07:57:26.205Z,98569.16
2022-12-05T07:59:52.300Z,98574.25
2022-12-05T08:02:18.661Z,98581.38
2022-12-05T08:04:44.789Z,98579.56
2022-12-05T08:07:10.889Z,98573.88
2022-12-05T08:09:37.020Z,98581.63
2022-12-05T08:12:03.112Z,98582.31
2022-12-05T08:14:29.220Z,98585.56
2022-12-05T08:16:55.401Z,98586.53
2022-12-05T08:19:21.535Z,98586.53
2022-12-05T08:21:47.626Z,98592.34
2022-12-05T08:24:13.744Z,98598.66
2022-12-05T08:26:39.840Z,98602.44
2022-12-05T08:29:05.936Z,98603.88
2022-12-05T08:31:32.064Z,98603.84
2022-12-05T08:33:59.308Z,98617.72
2022-12-05T08:36:25.656Z,98610.00
2022-12-05T08:38:51.764Z,98614.38
2022-12-05T08:41:17.859Z,98617.59
2022-12-05T08:43:43.961Z,98621.47
2022-12-05T08:46:10.159Z,98616.56
2022-12-05T08:48:36.326Z,98613.41
2022-12-05T08:51:02.432Z,98617.34
2022-12-05T08:53:28.551Z,98622.84
2022-12-05T08:55:54.660Z,98628.25
2022-12-05T08:58:20.742Z,98620.44
2022-12-05T09:00:46.870Z,98630.56
2022-12-05T09:03:12.997Z,98625.03
2022-12-05T09:05:39.092Z,98633.47
2022-12-05T09:08:05.322Z,98634.66
2022-12-05T09:10:31.500Z,98638.66
2022-12-05T09:12:58.088Z,98636.97
2022-12-05T09:15:24.282Z,98635.50
2022-12-05T09:17:50.383Z,98635.59
2022-12-05T09:20:16.487Z,98634.66
2022-12-05T09:22:42.602Z,98634.38
2022-12-05T09:25:08.683Z,98639.91
2022-12-05T09:27:34.785Z,98636.69
2022-12-05T09:30:00.969Z,98639.91
2022-12-05T09:32:27.088Z,98639.16
2022-12-05T09:34:53.193Z,98636.16
2022-12-05T09:37:38.162Z,98649.81
2022-12-05T09:40:04.585Z,98643.72
2022-12-05T09:42:30.722Z,98650.69
2022-12-05T09:44:57.050Z,98646.22
2022-12-05T09:47:23.458Z,98649.06
2022-12-05T09:49:49.585Z,98643.78
2022-12-05T09:52:15.674Z,98653.91
2022-12-05T09:54:41.794Z,98637.81
2022-12-05T09:57:07.906Z,98642.22
2022-12-05T09:59:34.001Z,98639.75
2022-12-05T10:02:00.158Z,98639.81
2022-12-05T10:04:26.894Z,98631.53
2022-12-05T10:06:53.032Z,98643.28
2022-12-05T10:09:19.115Z,98637.97
2022-12-05T10:11:45.814Z,98634.31
2022-12-05T10:14:11.920Z,98632.16
2022-12-05T10:16:38.129Z,98640.94
2022-12-05T10:19:04.296Z,98641.88
2022-12-05T10:21:30.390Z,98632.16
2022-12-05T10:23:58.251Z,98630.63
2022-12-05T10:26:24.871Z,98631.22
2022-12-05T10:28:50.960Z,98635.91
2022-12-05T10:31:17.120Z,98633.63
2022-12-05T10:33:43.295Z,98636.19
2022-12-05T10:36:09.397Z,98646.81
2022-12-05T10:38:35.496Z,98641.75
2022-12-05T10:41:01.628Z,98639.13
2022-12-05T10:43:27.774Z,98645.53
2022-12-05T10:45:53.890Z,98641.09
2022-12-05T10:48:20.007Z,98644.97
2022-12-05T10:50:46.092Z,98644.00
2022-12-05T10:53:12.188Z,98642.06
2022-12-05T10:55:38.293Z,98643.56
2022-12-05T10:58:04.393Z,98634.53
2022-12-05T11:00:30.486Z,98639.91
2022-12-05T11:02:57.288Z,98638.06
2022-12-05T11:05:23.418Z,98630.38
2022-12-05T11:07:49.662Z,98631.72
2022-12-05T11:10:15.933Z,98633.09
2022-12-05T11:12:42.006Z,98628.63
2022-12-05T11:15:08.097Z,98630.06
2022-12-05T11:17:34.431Z,98620.59
2022-12-05T11:20:00.537Z,98624.84
2022-12-05T11:22:26.628Z,98620.75
2022-12-05T11:24:52.749Z,98621.38
2022-12-05T11:27:18.833Z,98622.72
2022-12-05T11:29:44.943Z,98621.41
2022-12-05T11:32:11.065Z,98623.66
2022-12-05T11:34:37.156Z,98617.19
2022-12-05T11:37:03.236Z,98619.19
2022-12-05T11:39:29.351Z,98629.28
2022-12-05T11:41:55.443Z,98619.25
2022-12-05T11:44:21.531Z,98624.25
2022-12-05T11:46:47.747Z,98627.53
2022-12-05T11:49:13.890Z,98619.94
2022-12-05T11:51:39.990Z,98616.50
2022-12-05T11:54:06.097Z,98607.94
2022-12-05T11:56:32.202Z,98613.66
2022-12-05T11:58:58.376Z,98612.31
2022-12-05T12:01:24.495Z,98613.47
2022-12-05T12:03:50.639Z,98617.00
2022-12-05T12:06:16.808Z,98613.06
2022-12-05T12:08:43.236Z,98616.63
2022-12-05T12:11:09.338Z,98609.06
2022-12-05T12:13:35.431Z,98622.47
2022-12-05T12:16:06.653Z,98620.06
2022-12-05T12:18:34.458Z,98621.63
2022-12-05T12:21:00.558Z,98621.47
2022-12-05T12:23:26.657Z,98620.75
2022-12-05T12:25:52.744Z,98625.41
2022-12-05T12:28:18.836Z,98621.69
2022-12-05T12:30:44.945Z,98622.13
2022-12-05T12:33:11.060Z,98631.47
2022-12-05T12:35:37.158Z,98620.16
2022-12-05T12:38:03.255Z,98621.94
2022-12-05T12:40:29.350Z,98624.84
2022-12-05T12:42:55.445Z,98627.13
2022-12-05T12:45:21.574Z,98628.56
2022-12-05T12:47:47.668Z,98631.88
2022-12-05T12:50:13.769Z,98627.66
2022-12-05T12:52:39.878Z,98620.91
2022-12-05T12:55:06.015Z,98626.47
2022-12-05T12:57:32.151Z,98611.81
2022-12-05T12:59:58.381Z,98616.72
2022-12-05T13:02:24.718Z,98603.94
2022-12-05T13:04:50.870Z,98618.59
2022-12-05T13:07:16.982Z,98616.22
2022-12-05T13:09:46.164Z,98613.13
2022-12-05T13:12:16.335Z,98617.31
2022-12-05T13:14:42.959Z,98616.44
2022-12-05T13:17:09.096Z,98613.47
2022-12-05T13:19:35.237Z,98616.28
2022-12-05T13:22:01.347Z,98608.91
2022-12-05T13:24:27.435Z,98608.91
2022-12-05T13:26:53.515Z,98608.13
2022-12-05T13:29:19.615Z,98608.38
2022-12-05T13:31:45.830Z,98616.00
2022-12-05T13:34:11.993Z,98613.16
2022-12-05T13:36:38.115Z,98609.41
2022-12-05T13:39:04.214Z,98619.41
2022-12-05T13:41:30.293Z,98615.53
2022-12-05T13:44:05.988Z,98620.16
2022-12-05T13:46:32.667Z,98611.50
2022-12-05T13:48:58.814Z,98611.06
2022-12-05T13:51:24.896Z,98613.59
2022-12-05T13:53:50.978Z,98613.06
2022-12-05T13:56:17.113Z,98618.25
2022-12-05T13:58:43.200Z,98621.75
2022-12-05T14:01:09.350Z,98623.25
2022-12-05T14:03:35.480Z,98626.38
2022-12-05T14:06:01.579Z,98629.75
2022-12-05T14:08:27.700Z,98630.47
2022-12-05T14:10:53.841Z,98631.41
2022-12-05T14:13:19.996Z,98620.69
2022-12-05T14:15:46.094Z,98627.56
2022-12-05T14:18:12.298Z,98627.19
2022-12-05T14:20:38.382Z,98629.78
2022-12-05T14:23:04.465Z,98629.88
2022-12-05T14:25:30.575Z,98640.34
2022-12-05T14:27:56.701Z,98635.38
2022-12-05T14:30:22.821Z,98627.03
2022-12-05T14:32:48.950Z,98638.38
2022-12-05T14:35:15.048Z,98646.22
2022-12-05T14:37:44.425Z,98647.41
2022-12-05T14:40:14.602Z,98641.53
2022-12-05T14:42:40.780Z,98643.56
2022-12-05T14:45:06.873Z,98650.19
2022-12-05T14:47:32.979Z,98650.22
2022-12-05T14:49:59.088Z,98645.25
2022-12-05T14:52:25.227Z,98643.59
2022-12-05T14:54:51.375Z,98649.78
2022-12-05T14:57:17.455Z,98647.84
2022-12-05T14:59:43.549Z,98655.00
2022-12-05T15:02:09.697Z,98645.50
2022-12-05T15:04:35.827Z,98647.66
2022-12-05T15:07:01.944Z,98650.78
2022-12-05T15:09:36.991Z,98656.94
2022-12-05T15:12:09.373Z,98655.75
2022-12-05T15:14:35.934Z,98654.84
2022-12-05T15:17:02.035Z,98655.66
2022-12-05T15:19:28.411Z,98660.41
2022-12-05T15:21:55.107Z,98661.50
2022-12-05T15:24:21.197Z,98659.94
2022-12-05T15:26:48.494Z,98663.56
2022-12-05T15:29:15.168Z,98662.53
2022-12-05T15:31:41.264Z,98657.50
2022-12-05T15:34:07.355Z,98665.03
2022-12-05T15:36:33.471Z,98669.63
2022-12-05T15:38:59.558Z,98672.94
2022-12-05T15:41:25.657Z,98670.63
2022-12-05T15:43:51.772Z,98669.34
2022-12-05T15:46:17.904Z,98671.66
2022-12-05T15:48:44.001Z,98673.22
2022-12-05T15:51:10.126Z,98675.00
2022-12-05T15:53:36.224Z,98675.81
2022-12-05T15:56:02.320Z,98672.69
2022-12-05T15:58:28.421Z,98675.41
2022-12-05T16:00:54.503Z,98683.56
2022-12-05T16:03:20.587Z,98683.09
2022-12-05T16:05:46.702Z,98681.22
2022-12-05T16:08:12.844Z,98689.16
2022-12-05T16:10:38.976Z,98682.25
2022-12-05T16:13:05.094Z,98680.31
2022-12-05T16:15:31.182Z,98685.69
2022-12-05T16:17:57.276Z,98682.38
2022-12-05T16:20:23.388Z,98686.84
2022-12-05T16:22:49.472Z,98687.28
2022-12-05T16:25:15.554Z,98683.19
2022-12-05T16:27:41.945Z,98687.94
2022-12-05T16:30:08.031Z,98688.97
2022-12-05T16:32:34.125Z,98692.47
2022-12-05T16:35:00.238Z,98686.34
2022-12-05T16:37:26.327Z,98687.47
2022-12-05T16:39:52.416Z,98685.88
2022-12-05T16:42:18.530Z,98683.75
2022-12-05T16:44:44.620Z,98690.00
2022-12-05T16:47:10.704Z,98693.78
2022-12-05T16:49:42.719Z,98694.38
2022-12-05T16:52:11.848Z,98695.81
2022-12-05T16:54:37.969Z,98692.66
2022-12-05T16:57:04.060Z,98695.81
2022-12-05T16:59:30.138Z,98695.00
2022-12-05T17:01:56.301Z,98695.56
2022-12-05T17:04:22.524Z,98700.00
2022-12-05T17:06:48.624Z,98692.94
2022-12-05T17:09:14.750Z,98693.97
2022-12-05T17:11:40.853Z,98694.38
2022-12-05T17:14:06.938Z,98690.19
2022-12-05T17:16:33.147Z,98695.81
2022-12-05T17:18:59.293Z,98690.72
2022-12-05T17:21:25.390Z,98696.31
2022-12-05T17:23:51.875Z,98688.75
2022-12-05T17:26:17.958Z,98696.38
2022-12-05T17:28:44.049Z,98701.31
2022-12-05T17:31:10.197Z,98697.78
2022-12-05T17:33:36.317Z,98705.34
2022-12-05T17:36:02.417Z,98699.25
2022-12-05T17:38:28.529Z,98703.16
2022-12-05T17:40:54.616Z,98700.94
2022-12-05T17:43:25.116Z,98702.72
2022-12-05T17:45:51.671Z,98706.63
2022-12-05T17:48:17.772Z,98708.28
2022-12-05T17:50:44.083Z,98710.16
2022-12-05T17:53:10.214Z,98706.78
2022-12-05T17:55:36.312Z,98704.94
2022-12-05T17:58:02.405Z,98707.25
2022-12-05T18:00:28.526Z,98701.03
2022-12-05T18:02:54.655Z,98697.25
2022-12-05T18:05:20.780Z,98695.06
2022-12-05T18:07:46.939Z,98698.63
2022-12-05T18:10:13.124Z,98701.22
2022-12-05T18:12:39.243Z,98697.78
2022-12-05T18:15:05.356Z,98705.88
2022-12-05T18:17:31.495Z,98707.19
2022-12-05T18:19:57.604Z,98712.47
2022-12-05T18:22:23.703Z,98709.50
2022-12-05T18:24:49.790Z,98710.06
2022-12-05T18:27:15.886Z,98714.78
2022-12-05T18:29:42.051Z,98716.94
2022-12-05T18:32:08.162Z,98716.66
2022-12-05T18:34:34.252Z,98720.69
2022-12-05T18:37:00.363Z,98716.84
2022-12-05T18:39:26.468Z,98717.22
2022-12-05T18:41:52.566Z,98726.78
2022-12-05T18:44:18.695Z,98730.22
2022-12-05T18:46:44.801Z,98722.69
2022-12-05T18:49:10.886Z,98727.34
2022-12-05T18:51:36.983Z,98724.19
2022-12-05T18:54:03.088Z,98727.06
2022-12-05T18:56:29.507Z,98720.84
2022-12-05T18:58:55.998Z,98727.81
2022-12-05T19:01:22.158Z,98735.34
2022-12-05T19:03:48.273Z,98735.91
2022-12-05T19:06:14.393Z,98727.25
2022-12-05T19:08:40.492Z,98729.41
2022-12-05T19:11:06.592Z,98734.50
2022-12-05T19:13:32.689Z,98731.91
2022-12-05T19:15:58.776Z,98737.31
2022-12-05T19:18:24.889Z,98742.69
2022-12-05T19:20:50.995Z,98745.41
2022-12-05T19:23:17.083Z,98746.44
2022-12-05T19:25:43.189Z,98741.75
2022-12-05T19:28:09.291Z,98740.56
2022-12-05T19:30:35.382Z,98744.00
2022-12-05T19:33:01.478Z,98745.13
2022-12-05T19:35:27.627Z,98745.50
2022-12-05T19:37:53.725Z,98747.34
2022-12-05T19:40:19.813Z,98748.44
2022-12-05T19:42:45.938Z,98750.91
2022-12-05T19:45:16.461Z,98754.97
2022-12-05T19:47:44.064Z,98759.88
2022-12-05T19:50:10.191Z,98756.72
2022-12-05T19:52:36.279Z,98757.22
2022-12-05T19:55:02.403Z,98752.94
2022-12-05T19:57:31.405Z,98756.66
2022-12-05T19:59:57.968Z,98753.03
2022-12-05T20:02:24.367Z,98757.13
2022-12-05T20:04:50.503Z,98748.56
2022-12-05T20:07:16.591Z,98754.69
2022-12-05T20:09:42.707Z,98753.78
2022-12-05T20:12:08.815Z,98747.00
2022-12-05T20:14:34.900Z,98752.34
2022-12-05T20:17:01.020Z,98745.22
2022-12-05T20:19:27.153Z,98744.38
2022-12-05T20:21:53.290Z,98751.06
2022-12-05T20:24:19.375Z,98746.88
2022-12-05T20:26:45.634Z,98748.94
2022-12-05T20:29:11.716Z,98753.09
2022-12-05T20:31:37.872Z,98752.09
2022-12-05T20:34:03.990Z,98746.59
2022-12-05T20:36:30.087Z,98746.78
2022-12-05T20:38:57.759Z,98744.09
2022-12-05T20:41:23.874Z,98749.03
2022-12-05T20:43:49.975Z,98746.13
2022-12-05T20:46:16.104Z,98744.75
2022-12-05T20:48:42.231Z,98739.81
2022-12-05T20:51:08.317Z,98741.03
2022-12-05T20:53:34.400Z,98741.88
2022-12-05T20:56:00.503Z,98745.84
2022-12-05T20:58:26.601Z,98742.06
2022-12-05T21:00:52.738Z,98740.38
2022-12-05T21:03:18.916Z,98741.03
2022-12-05T21:05:45.021Z,98743.91
2022-12-05T21:08:11.166Z,98742.69
2022-12-05T21:10:37.336Z,98743.72
2022-12-05T21:13:03.426Z,98737.69
2022-12-05T21:15:29.532Z,98735.81
2022-12-05T21:17:55.644Z,98741.03
2022-12-05T21:20:21.732Z,98740.91
2022-12-05T21:22:47.842Z,98739.19
2022-12-05T21:25:13.945Z,98743.81
2022-12-05T21:27:40.027Z,98747.72
2022-12-05T21:30:06.126Z,98745.13
2022-12-05T21:32:32.223Z,98744.09
2022-12-05T21:34:58.299Z,98746.72
2022-12-05T21:37:24.378Z,98742.69
2022-12-05T21:39:50.721Z,98737.31
2022-12-05T21:42:16.800Z,98738.31
2022-12-05T21:44:42.887Z,98735.06
2022-12-05T21:47:09.008Z,98734.59
2022-12-05T21:49:35.116Z,98732.19
2022-12-05T21:52:01.220Z,98729.50
2022-12-05T21:54:27.335Z,98728.00
2022-12-05T21:56:53.460Z,98731.25
2022-12-05T21:59:19.549Z,98729.69
2022-12-05T22:01:45.723Z,98733.78
2022-12-05T22:04:11.884Z,98723.72
2022-12-05T22:06:37.963Z,98720.84
2022-12-05T22:09:04.080Z,98718.16
2022-12-05T22:11:30.204Z,98730.41
2022-12-05T22:13:56.298Z,98729.03
2022-12-05T22:16:25.390Z,98730.69
2022-12-05T22:18:55.219Z,98740.91
2022-12-05T22:21:21.312Z,98742.81
2022-12-05T22:23:47.438Z,98741.13
2022-12-05T22:26:13.518Z,98741.38
2022-12-05T22:28:39.600Z,98741.38
2022-12-05T22:31:05.801Z,98740.28
2022-12-05T22:33:31.924Z,98734.13
2022-12-05T22:35:58.003Z,98734.31
2022-12-05T22:38:24.103Z,98735.16
2022-12-05T22:40:50.196Z,98738.00
2022-12-05T22:43:16.288Z,98734.31
2022-12-05T22:45:42.443Z,98736.09
2022-12-05T22:48:08.539Z,98735.06
2022-12-05T22:50:34.624Z,98731.53
2022-12-05T22:53:00.728Z,98729.94
2022-12-05T22:55:26.819Z,98730.41
2022-12-05T22:57:52.916Z,98735.91
2022-12-05T23:00:19.028Z,98729.94
2022-12-05T23:02:45.143Z,98721.56
2022-12-05T23:05:11.243Z,98718.63
2022-12-05T23:07:37.423Z,98718.78
2022-12-05T23:10:03.523Z,98719.09
2022-12-05T23:12:29.607Z,98715.00
2022-12-05T23:14:55.722Z,98715.91
2022-12-05T23:17:21.813Z,98707.19
2022-12-05T23:19:47.890Z,98707.66
2022-12-05T23:22:13.991Z,98716.19
2022-12-05T23:24:40.082Z,98711.63
2022-12-05T23:27:06.175Z,98701.88
2022-12-05T23:29:32.351Z,98710.53
2022-12-05T23:31:58.504Z,98706.44
2022-12-05T23:34:24.644Z,98709.22
2022-12-05T23:36:50.799Z,98699.06
2022-12-05T23:39:16.882Z,98701.50
2022-12-05T23:41:42.971Z,98697.41
2022-12-05T23:44:09.096Z,98698.31
2022-12-05T23:46:35.239Z,98698.53
2022-12-05T23:49:01.373Z,98702.59
2022-12-05T23:51:27.490Z,98703.63
2022-12-05T23:53:53.568Z,98696.84
2022-12-05T23:56:19.653Z,98700.13
2022-12-05T23:58:45.768Z,98708.09
